createdAt,value
2022-09-15T00:02:16.668Z,94.61125
2022-09-15T00:07:17.813Z,94.61125
2022-09-15T00:12:18.799Z,94.98039
2022-09-15T00:17:19.724Z,94.61125
2022-09-15T00:22:20.664Z,94.98039
2022-09-15T00:27:21.653Z,94.98039
2022-09-15T00:32:22.846Z,95.35135
2022-09-15T00:37:23.765Z,95.35135
2022-09-15T00:42:24.843Z,95.35135
2022-09-15T00:47:25.988Z,95.35135
2022-09-15T00:52:27.078Z,95.72414
2022-09-15T00:57:28.135Z,95.35135
2022-09-15T01:02:29.209Z,95.35135
2022-09-15T01:07:30.151Z,95.35135
2022-09-15T01:12:31.277Z,95.72414
2022-09-15T01:17:32.205Z,96.09877
2022-09-15T01:22:33.193Z,95.72414
2022-09-15T01:27:41.602Z,96.09877
2022-09-15T01:32:43.085Z,96.09877
2022-09-15T01:37:44.153Z,96.47525
2022-09-15T01:42:45.158Z,96.47525
2022-09-15T01:47:46.172Z,96.47525
2022-09-15T01:52:47.242Z,96.47525
2022-09-15T01:57:48.153Z,96.47525
2022-09-15T02:02:49.292Z,96.47525
2022-09-15T02:07:50.212Z,96.8536
2022-09-15T02:12:51.284Z,96.8536
2022-09-15T02:17:52.233Z,97.23383
2022-09-15T02:22:53.158Z,96.47525
2022-09-15T02:27:54.208Z,96.47525
2022-09-15T02:32:55.144Z,96.47525
2022-09-15T02:37:56.064Z,96.47525
2022-09-15T02:42:57.071Z,96.09877
2022-09-15T02:47:58.049Z,96.47525
2022-09-15T02:52:58.997Z,96.8536
2022-09-15T02:58:00.034Z,96.8536
2022-09-15T03:03:00.990Z,96.8536
2022-09-15T03:08:01.949Z,96.8536
2022-09-15T03:13:03.100Z,97.23383
2022-09-15T03:18:04.084Z,97.23383
2022-09-15T03:23:05.149Z,97.23383
2022-09-15T03:28:06.118Z,97.61596
2022-09-15T03:33:07.262Z,97.61596
2022-09-15T03:38:08.212Z,97.61596
2022-09-15T03:43:09.204Z,98.0
2022-09-15T03:48:10.185Z,98.0
2022-09-15T03:53:11.128Z,98.0
2022-09-15T03:58:12.032Z,97.61596
2022-09-15T04:03:12.968Z,97.61596
2022-09-15T04:08:13.884Z,98.0
2022-09-15T04:13:14.898Z,98.38596
2022-09-15T04:18:15.923Z,98.38596
2022-09-15T04:23:16.806Z,98.0
2022-09-15T04:28:17.810Z,98.38596
2022-09-15T04:33:18.934Z,98.38596
2022-09-15T04:38:19.873Z,98.38596
2022-09-15T04:43:20.897Z,98.38596
2022-09-15T04:48:21.861Z,98.38596
2022-09-15T04:53:23.073Z,98.77387
2022-09-15T04:58:24.000Z,98.0
2022-09-15T05:03:25.025Z,98.77387
2022-09-15T05:08:25.936Z,98.38596
2022-09-15T05:13:26.965Z,98.77387
2022-09-15T05:18:27.902Z,99.16373
2022-09-15T05:23:29.022Z,99.16373
2022-09-15T05:28:30.168Z,98.77387
2022-09-15T05:33:31.258Z,98.77387
2022-09-15T05:38:32.312Z,98.38596
2022-09-15T05:43:33.416Z,98.38596
2022-09-15T05:48:34.442Z,98.38596
2022-09-15T05:53:35.447Z,98.0
2022-09-15T05:58:36.365Z,98.0
2022-09-15T06:03:37.390Z,97.23383
2022-09-15T06:08:40.531Z,97.23383
2022-09-15T06:13:44.708Z,96.8536
2022-09-15T06:18:45.983Z,96.47525
2022-09-15T06:23:50.712Z,96.47525
2022-09-15T06:28:51.988Z,95.72414
2022-09-15T06:33:53.267Z,95.72414
2022-09-15T06:38:54.457Z,96.8536
2022-09-15T06:43:55.447Z,96.47525
2022-09-15T06:48:56.462Z,95.72414
2022-09-15T06:53:57.535Z,96.09877
2022-09-15T06:58:58.555Z,96.47525
2022-09-15T07:03:59.550Z,96.09877
2022-09-15T07:09:00.503Z,96.09877
2022-09-15T07:14:01.675Z,97.61596
2022-09-15T07:19:02.614Z,98.0
2022-09-15T07:24:07.030Z,96.47525
2022-09-15T07:29:08.640Z,97.61596
2022-09-15T07:34:09.579Z,98.0
2022-09-15T07:39:10.580Z,95.35135
2022-09-15T07:44:11.516Z,93.87835
2022-09-15T07:49:12.665Z,93.51456
2022-09-15T07:54:16.265Z,94.61125
2022-09-15T07:59:19.646Z,94.98039
2022-09-15T08:04:20.675Z,95.35135
2022-09-15T08:09:21.618Z,95.35135
2022-09-15T08:14:22.740Z,94.61125
2022-09-15T08:19:23.821Z,94.61125
2022-09-15T08:29:25.287Z,93.15254
2022-09-15T08:34:26.324Z,93.51456
2022-09-15T08:39:27.330Z,93.87835
2022-09-15T08:44:28.647Z,95.72414
2022-09-15T08:49:47.832Z,95.35135
2022-09-15T08:54:52.374Z,94.98039
2022-09-15T08:59:53.389Z,98.38596
2022-09-15T09:04:54.430Z,97.61596
2022-09-15T09:09:55.368Z,94.98039
2022-09-15T09:14:56.302Z,95.35135
2022-09-15T09:19:57.232Z,94.61125
2022-09-15T09:24:58.234Z,96.09877
2022-09-15T09:29:59.222Z,97.23383
2022-09-15T09:35:00.225Z,97.61596
2022-09-15T09:40:01.294Z,98.77387
2022-09-15T09:45:02.418Z,99.55556
2022-09-15T09:50:03.500Z,99.55556
2022-09-15T09:55:04.591Z,98.38596
2022-09-15T10:00:05.512Z,97.61596
2022-09-15T10:05:06.614Z,98.38596
2022-09-15T10:10:07.786Z,97.23383
2022-09-15T10:15:08.763Z,98.38596
2022-09-15T10:20:10.401Z,99.16373
2022-09-15T10:25:11.405Z,102.76289
2022-09-15T10:30:12.446Z,98.77387
2022-09-15T10:35:13.680Z,97.23383
2022-09-15T10:40:14.615Z,96.8536
2022-09-15T10:45:15.608Z,95.35135
2022-09-15T10:50:16.613Z,99.55556
2022-09-15T10:55:24.812Z,102.35476
2022-09-15T11:00:38.148Z,101.14286
2022-09-15T11:05:39.125Z,99.55556
2022-09-15T11:10:40.040Z,101.54476
2022-09-15T11:15:42.184Z,102.76289
2022-09-15T11:20:43.257Z,99.55556
2022-09-15T11:25:44.169Z,103.58549
2022-09-15T11:30:47.803Z,101.94872
2022-09-15T11:35:49.200Z,101.14286
2022-09-15T11:40:50.256Z,101.54476
2022-09-15T11:45:51.236Z,100.743
2022-09-15T11:50:52.158Z,99.55556
2022-09-15T11:55:53.165Z,100.34518
2022-09-15T12:00:54.062Z,103.17313
2022-09-15T12:05:54.986Z,106.96296
2022-09-15T12:10:55.937Z,106.53298
2022-09-15T12:15:57.487Z,106.10526
2022-09-15T12:20:58.564Z,104.0
2022-09-15T12:25:59.463Z,103.58549
2022-09-15T12:31:00.502Z,107.39523
2022-09-15T12:36:01.614Z,104.0
2022-09-15T12:41:02.533Z,100.743
2022-09-15T12:46:03.711Z,100.34518
2022-09-15T12:51:04.598Z,100.34518
2022-09-15T12:56:05.489Z,99.55556
2022-09-15T13:01:18.088Z,99.16373
2022-09-15T13:06:19.818Z,100.743
2022-09-15T13:11:20.762Z,103.58549
2022-09-15T13:16:21.728Z,102.35476
2022-09-15T13:21:22.734Z,104.83551
2022-09-15T13:26:23.949Z,104.41667
2022-09-15T13:31:24.929Z,105.67979
2022-09-15T13:36:26.630Z,103.58549
2022-09-15T13:41:27.721Z,104.83551
2022-09-15T13:46:28.942Z,103.17313
2022-09-15T13:51:29.979Z,104.41667
2022-09-15T14:01:45.351Z,102.76289
2022-09-15T14:06:46.355Z,102.76289
2022-09-15T14:11:47.298Z,104.41667
2022-09-15T14:16:48.523Z,106.53298
2022-09-15T14:21:49.478Z,104.83551
2022-09-15T14:26:50.368Z,104.41667
2022-09-15T14:31:51.479Z,106.53298
2022-09-15T14:36:52.509Z,105.25654
2022-09-15T14:41:53.473Z,103.17313
2022-09-15T14:46:54.418Z,101.94872
2022-09-15T14:51:55.335Z,105.25654
2022-09-15T14:56:58.299Z,106.53298
2022-09-15T15:01:59.309Z,104.0
2022-09-15T15:07:00.265Z,103.17313
2022-09-15T15:12:01.237Z,104.41667
2022-09-15T15:17:02.696Z,105.67979
2022-09-15T15:22:03.671Z,104.41667
2022-09-15T15:27:04.686Z,104.41667
2022-09-15T15:32:05.650Z,106.10526
2022-09-15T15:37:06.612Z,106.53298
2022-09-15T15:42:07.543Z,108.26667
2022-09-15T15:47:08.550Z,105.25654
2022-09-15T15:52:09.620Z,105.67979
2022-09-15T15:57:10.696Z,110.48649
2022-09-15T16:02:11.839Z,113.23077
2022-09-15T16:07:12.869Z,109.5914
2022-09-15T16:12:13.789Z,106.96296
2022-09-15T16:17:15.091Z,106.10526
2022-09-15T16:22:16.017Z,103.58549
2022-09-15T16:27:16.930Z,103.58549
2022-09-15T16:32:17.867Z,104.41667
2022-09-15T16:37:18.869Z,103.58549
2022-09-15T16:42:19.782Z,104.83551
2022-09-15T16:47:21.083Z,103.58549
2022-09-15T16:52:22.352Z,105.25654
2022-09-15T16:57:23.766Z,104.41667
2022-09-15T17:02:24.984Z,104.0
2022-09-15T17:07:25.989Z,105.25654
2022-09-15T17:12:26.961Z,108.26667
2022-09-15T17:17:28.436Z,109.5914
2022-09-15T17:22:29.583Z,108.70588
2022-09-15T17:27:30.461Z,107.39523
2022-09-15T17:32:34.776Z,108.70588
2022-09-15T17:37:35.986Z,107.39523
2022-09-15T17:42:36.982Z,109.5914
2022-09-15T17:47:37.869Z,108.26667
2022-09-15T17:52:38.888Z,106.96296
2022-09-15T17:57:40.707Z,107.39523
2022-09-15T18:02:41.677Z,108.70588
2022-09-15T18:07:47.724Z,107.82979
2022-09-15T18:12:50.108Z,107.82979
2022-09-15T18:17:53.390Z,106.96296
2022-09-15T18:22:54.319Z,106.96296
2022-09-15T18:27:55.247Z,106.53298
2022-09-15T18:32:56.145Z,108.26667
2022-09-15T18:37:57.115Z,108.70588
2022-09-15T18:42:58.049Z,109.14745
2022-09-15T18:47:58.968Z,109.14745
2022-09-15T18:53:00.017Z,110.03774
2022-09-15T18:58:01.313Z,108.70588
2022-09-15T19:03:02.479Z,106.53298
2022-09-15T19:08:03.373Z,105.25654
2022-09-15T19:13:04.358Z,105.67979
2022-09-15T19:18:05.298Z,106.96296
2022-09-15T19:23:06.333Z,108.70588
2022-09-15T19:28:07.278Z,106.96296
2022-09-15T19:33:08.220Z,105.67979
2022-09-15T19:38:09.118Z,105.25654
2022-09-15T19:43:10.017Z,104.83551
2022-09-15T19:48:11.016Z,104.83551
2022-09-15T19:53:12.001Z,104.83551
2022-09-15T19:58:12.908Z,104.83551
2022-09-15T20:03:13.800Z,104.0
2022-09-15T20:08:15.265Z,104.0
2022-09-15T20:13:16.326Z,104.0
2022-09-15T20:18:17.296Z,103.58549
2022-09-15T20:23:18.312Z,103.17313
2022-09-15T20:28:19.243Z,102.76289
2022-09-15T20:33:20.169Z,103.58549
2022-09-15T20:38:21.234Z,102.76289
2022-09-15T20:43:22.169Z,104.0
2022-09-15T20:48:24.061Z,104.0
2022-09-15T20:53:26.457Z,104.0
2022-09-15T20:58:27.530Z,104.0
2022-09-15T21:03:28.474Z,104.41667
2022-09-15T21:08:29.443Z,104.83551
2022-09-15T21:13:30.380Z,104.83551
2022-09-15T21:18:31.284Z,104.83551
2022-09-15T21:23:32.230Z,104.0
2022-09-15T21:28:33.146Z,103.58549
2022-09-15T21:33:34.031Z,103.17313
2022-09-15T21:38:34.940Z,102.76289
2022-09-15T21:43:36.050Z,103.17313
2022-09-15T21:48:37.102Z,103.58549
2022-09-15T21:53:38.123Z,103.17313
2022-09-15T21:58:42.647Z,103.17313
2022-09-15T22:03:44.642Z,102.76289
2022-09-15T22:08:45.866Z,103.17313
2022-09-15T22:13:47.030Z,104.41667
2022-09-15T22:18:48.241Z,104.0
2022-09-15T22:23:49.196Z,104.41667
2022-09-15T22:28:50.118Z,105.25654
2022-09-15T22:33:51.057Z,104.83551
2022-09-15T22:38:52.020Z,105.25654
2022-09-15T22:43:53.058Z,105.25654
2022-09-15T22:48:54.001Z,106.53298
2022-09-15T22:53:55.027Z,106.53298
2022-09-15T22:58:56.127Z,106.10526
2022-09-15T23:03:57.279Z,107.39523
2022-09-15T23:08:58.267Z,107.82979
2022-09-15T23:13:59.185Z,108.70588
2022-09-15T23:19:00.111Z,108.26667
2022-09-15T23:24:01.145Z,109.5914
2022-09-15T23:29:02.081Z,109.14745
2022-09-15T23:34:03.070Z,107.82979
2022-09-15T23:39:04.057Z,106.96296
2022-09-15T23:44:05.441Z,109.5914
2022-09-15T23:49:06.344Z,109.5914
2022-09-15T23:54:07.281Z,109.14745
2022-09-15T23:59:08.330Z,108.26667
